Terminal Aerodrome Forecast
Issued by NWS

Home | Current Version | Previous Version | Graphics & Text | Print | Product List | Glossary On
Versions: 1 2 3 4 5 6 7 8 9 10 11 12 13 14 15 16 17 18 19 20 21 22 23
361
FTUS42 KMHX 221304 AAB
TAFOAJ
TAF AMD
KOAJ 221304Z 2213/2312 06005KT P6SM VCSH OVC006
     FM221430 07005KT P6SM VCSH OVC011
     FM221700 08005KT 5SM SHRA BKN022
     FM230200 03003KT 6SM BR OVC015
     FM230400 02003KT 5SM BR BKN007
     FM230600 02003KT 2SM BR OVC003
      AMD LTD TO CLD VIS AND WIND=

USA.gov is the U.S. government's official web portal to all federal, state and local government web resources and services.